createdAt,value
2022-11-27T00:02:33.320Z,13.68
2022-11-27T00:05:25.879Z,13.64
2022-11-27T00:08:15.173Z,13.52
2022-11-27T00:11:11.925Z,13.56
2022-11-27T00:14:02.303Z,13.48
2022-11-27T00:16:51.847Z,13.42
2022-11-27T00:19:41.450Z,13.44
2022-11-27T00:22:30.999Z,13.38
2022-11-27T00:25:20.677Z,13.32
2022-11-27T00:28:11.395Z,13.36
2022-11-27T00:31:01.607Z,13.36
2022-11-27T00:33:51.107Z,13.26
2022-11-27T00:36:44.008Z,13.30
2022-11-27T00:39:36.206Z,13.27
2022-11-27T00:42:25.617Z,13.26
2022-11-27T00:45:16.521Z,13.24
2022-11-27T00:48:06.696Z,13.27
2022-11-27T00:51:01.880Z,13.14
2022-11-27T00:53:51.784Z,13.16
2022-11-27T00:56:41.673Z,13.13
2022-11-27T00:59:31.183Z,13.15
2022-11-27T01:02:22.096Z,13.12
2022-11-27T01:05:11.811Z,13.06
2022-11-27T01:08:01.079Z,13.11
2022-11-27T01:10:54.700Z,13.04
2022-11-27T01:13:45.195Z,13.00
2022-11-27T01:16:38.617Z,12.97
2022-11-27T01:19:32.785Z,12.94
2022-11-27T01:22:22.119Z,13.03
2022-11-27T01:25:11.767Z,12.86
2022-11-27T01:28:01.177Z,12.91
2022-11-27T01:30:51.765Z,12.94
2022-11-27T01:33:41.438Z,12.86
2022-11-27T01:36:33.222Z,12.93
2022-11-27T01:39:24.540Z,12.93
2022-11-27T01:42:13.902Z,12.85
2022-11-27T01:45:03.232Z,12.82
2022-11-27T01:47:56.832Z,12.85
2022-11-27T01:50:46.141Z,12.77
2022-11-27T01:53:36.901Z,12.71
2022-11-27T01:56:29.068Z,12.66
2022-11-27T01:59:19.557Z,12.75
2022-11-27T02:02:08.947Z,12.68
2022-11-27T02:04:58.294Z,12.71
2022-11-27T02:07:48.983Z,12.60
2022-11-27T02:10:50.778Z,12.62
2022-11-27T02:13:47.006Z,12.63
2022-11-27T02:16:45.297Z,12.64
2022-11-27T02:20:03.927Z,12.54
2022-11-27T02:23:26.878Z,12.45
2022-11-27T02:27:01.136Z,12.49
2022-11-27T02:29:58.288Z,12.43
2022-11-27T02:32:57.378Z,12.38
2022-11-27T02:35:53.533Z,12.33
2022-11-27T02:38:49.167Z,12.37
2022-11-27T02:41:45.836Z,12.30
2022-11-27T02:44:40.573Z,12.33
2022-11-27T02:47:33.837Z,12.25
2022-11-27T02:50:25.450Z,12.29
2022-11-27T02:53:20.480Z,12.25
2022-11-27T02:56:16.245Z,12.18
2022-11-27T02:59:12.736Z,12.23
2022-11-27T03:02:08.159Z,12.15
2022-11-27T03:05:04.069Z,12.18
2022-11-27T03:08:01.071Z,12.23
2022-11-27T03:10:56.460Z,12.16
2022-11-27T03:13:50.066Z,12.14
2022-11-27T03:16:45.191Z,12.12
2022-11-27T03:19:44.138Z,12.14
2022-11-27T03:22:34.939Z,12.16
2022-11-27T03:25:25.293Z,12.12
2022-11-27T03:28:16.138Z,12.06
2022-11-27T03:31:06.278Z,12.10
2022-11-27T03:33:56.356Z,12.20
2022-11-27T03:36:46.862Z,12.14
2022-11-27T03:39:38.026Z,12.11
2022-11-27T03:42:35.683Z,12.18
2022-11-27T03:45:35.540Z,12.13
2022-11-27T03:48:33.453Z,12.08
2022-11-27T03:51:31.412Z,12.16
2022-11-27T03:54:32.800Z,12.16
2022-11-27T03:57:29.948Z,12.09
2022-11-27T04:00:19.837Z,12.02
2022-11-27T04:03:11.652Z,12.04
2022-11-27T04:06:00.932Z,11.96
2022-11-27T04:08:50.242Z,12.04
2022-11-27T04:11:39.579Z,12.03
2022-11-27T04:14:30.317Z,12.01
2022-11-27T04:17:19.610Z,11.92
2022-11-27T04:20:11.741Z,11.91
2022-11-27T04:23:01.015Z,11.98
2022-11-27T04:25:50.776Z,11.94
2022-11-27T04:28:40.237Z,11.96
2022-11-27T04:31:31.092Z,11.91
2022-11-27T04:34:20.664Z,11.80
2022-11-27T04:37:10.043Z,11.80
2022-11-27T04:39:59.314Z,11.77
2022-11-27T04:42:48.625Z,11.67
2022-11-27T04:45:38.104Z,11.68
2022-11-27T04:48:28.815Z,11.69
2022-11-27T04:51:18.198Z,11.72
2022-11-27T04:54:07.594Z,11.67
2022-11-27T04:56:56.871Z,11.68
2022-11-27T04:59:46.136Z,11.60
2022-11-27T05:02:35.772Z,11.64
2022-11-27T05:05:26.522Z,11.59
2022-11-27T05:08:15.719Z,11.62
2022-11-27T05:11:07.729Z,11.57
2022-11-27T05:14:11.173Z,11.62
2022-11-27T05:17:01.838Z,11.53
2022-11-27T05:19:51.537Z,11.52
2022-11-27T05:22:42.351Z,11.40
2022-11-27T05:25:31.731Z,11.48
2022-11-27T05:28:26.423Z,11.49
2022-11-27T05:31:16.232Z,11.46
2022-11-27T05:34:06.194Z,11.50
2022-11-27T05:36:55.593Z,11.53
2022-11-27T05:39:46.364Z,11.56
2022-11-27T05:42:35.628Z,11.43
2022-11-27T05:45:25.033Z,11.43
2022-11-27T05:48:14.336Z,11.38
2022-11-27T05:51:04.869Z,11.41
2022-11-27T05:53:54.189Z,11.40
2022-11-27T05:56:44.968Z,11.41
2022-11-27T05:59:34.295Z,11.40
2022-11-27T06:02:29.169Z,11.42
2022-11-27T06:05:19.178Z,11.34
2022-11-27T06:08:08.524Z,11.26
2022-11-27T06:10:57.807Z,11.30
2022-11-27T06:13:50.506Z,11.37
2022-11-27T06:16:40.226Z,11.32
2022-11-27T06:19:30.338Z,11.24
2022-11-27T06:22:19.681Z,11.32
2022-11-27T06:25:10.025Z,11.28
2022-11-27T06:27:59.621Z,11.24
2022-11-27T06:30:50.318Z,11.31
2022-11-27T06:33:39.629Z,11.35
2022-11-27T06:36:31.681Z,11.31
2022-11-27T06:39:20.990Z,11.32
2022-11-27T06:42:10.466Z,11.34
2022-11-27T06:45:00.115Z,11.33
2022-11-27T06:47:50.764Z,11.39
2022-11-27T06:50:40.363Z,11.41
2022-11-27T06:53:30.173Z,11.32
2022-11-27T06:56:22.205Z,11.33
2022-11-27T06:59:15.638Z,11.36
2022-11-27T07:02:05.035Z,11.35
2022-11-27T07:04:55.695Z,11.43
2022-11-27T07:07:45.062Z,11.37
2022-11-27T07:10:36.183Z,11.32
2022-11-27T07:13:25.545Z,11.41
2022-11-27T07:16:16.367Z,11.33
2022-11-27T07:19:08.113Z,11.43
2022-11-27T07:21:58.854Z,11.41
2022-11-27T07:24:48.207Z,11.39
2022-11-27T07:27:37.485Z,11.34
2022-11-27T07:30:26.967Z,11.34
2022-11-27T07:33:16.373Z,11.07
2022-11-27T07:36:09.684Z,11.30
2022-11-27T07:39:00.598Z,11.36
2022-11-27T07:41:49.909Z,11.31
2022-11-27T07:44:39.582Z,11.30
2022-11-27T07:47:30.715Z,11.28
2022-11-27T07:50:20.309Z,11.25
2022-11-27T07:53:09.806Z,11.28
2022-11-27T07:56:02.262Z,11.25
2022-11-27T07:58:51.656Z,11.30
2022-11-27T08:01:41.020Z,11.30
2022-11-27T08:04:30.449Z,11.23
2022-11-27T08:07:20.131Z,11.23
2022-11-27T08:10:10.515Z,11.12
2022-11-27T08:13:01.123Z,11.07
2022-11-27T08:15:50.395Z,11.08
2022-11-27T08:18:39.752Z,11.07
2022-11-27T08:21:30.505Z,11.05
2022-11-27T08:24:19.905Z,11.06
2022-11-27T08:27:09.245Z,11.03
2022-11-27T08:29:59.875Z,11.00
2022-11-27T08:32:49.236Z,11.00
2022-11-27T08:35:38.580Z,10.98
2022-11-27T08:38:28.201Z,11.02
2022-11-27T08:41:17.652Z,10.98
2022-11-27T08:44:09.335Z,10.92
2022-11-27T08:47:00.365Z,11.01
2022-11-27T08:49:49.794Z,10.99
2022-11-27T08:52:39.146Z,11.01
2022-11-27T08:55:28.362Z,11.04
2022-11-27T08:58:17.799Z,11.04
2022-11-27T09:01:13.322Z,11.05
2022-11-27T09:04:04.235Z,11.01
2022-11-27T09:06:58.203Z,11.14
2022-11-27T09:09:48.759Z,11.20
2022-11-27T09:12:43.223Z,11.27
2022-11-27T09:15:32.941Z,11.30
2022-11-27T09:18:22.209Z,11.36
2022-11-27T09:21:15.101Z,11.47
2022-11-27T09:24:04.481Z,11.49
2022-11-27T09:26:53.848Z,11.58
2022-11-27T09:29:43.391Z,11.60
2022-11-27T09:32:33.023Z,11.61
2022-11-27T09:35:22.484Z,11.65
2022-11-27T09:38:13.303Z,11.70
2022-11-27T09:41:09.010Z,11.75
2022-11-27T09:44:04.826Z,11.67
2022-11-27T09:46:56.659Z,11.68
2022-11-27T09:49:52.157Z,11.76
2022-11-27T09:52:46.054Z,11.85
2022-11-27T09:55:41.784Z,11.90
2022-11-27T09:58:39.653Z,12.01
2022-11-27T10:01:41.925Z,12.01
2022-11-27T10:04:58.009Z,12.12
2022-11-27T10:08:09.660Z,12.14
2022-11-27T10:11:20.466Z,12.23
2022-11-27T10:14:29.466Z,12.31
2022-11-27T10:17:23.727Z,12.38
2022-11-27T10:20:28.796Z,12.42
2022-11-27T10:23:32.356Z,12.46
2022-11-27T10:26:33.875Z,12.51
2022-11-27T10:29:44.338Z,12.53
2022-11-27T10:35:49.420Z,12.89
2022-11-27T10:38:42.358Z,13.08
2022-11-27T10:41:49.304Z,13.25
2022-11-27T10:44:44.094Z,13.30
2022-11-27T10:47:34.165Z,13.26
2022-11-27T10:50:23.520Z,13.41
2022-11-27T10:53:27.270Z,13.50
2022-11-27T10:56:51.164Z,13.58
2022-11-27T10:59:48.019Z,13.64
2022-11-27T11:02:39.983Z,13.69
2022-11-27T11:05:45.034Z,13.69
2022-11-27T11:08:39.760Z,13.83
2022-11-27T11:11:29.647Z,13.71
2022-11-27T11:14:23.932Z,13.70
2022-11-27T11:17:18.620Z,13.82
2022-11-27T11:20:21.354Z,13.84
2022-11-27T11:23:30.836Z,14.02
2022-11-27T11:26:29.797Z,14.14
2022-11-27T11:29:32.633Z,14.27
2022-11-27T11:32:26.887Z,14.38
2022-11-27T11:35:28.814Z,14.35
2022-11-27T11:38:23.859Z,14.31
2022-11-27T11:41:13.843Z,14.73
2022-11-27T11:44:03.904Z,15.10
2022-11-27T11:46:56.172Z,15.14
2022-11-27T11:49:45.601Z,14.99
2022-11-27T11:52:54.199Z,14.82
2022-11-27T11:55:57.003Z,14.66
2022-11-27T11:58:57.788Z,14.58
2022-11-27T12:02:26.556Z,14.40
2022-11-27T12:05:36.197Z,14.33
2022-11-27T12:08:43.279Z,14.27
2022-11-27T12:11:41.813Z,14.01
2022-11-27T12:14:45.741Z,13.77
2022-11-27T12:17:53.631Z,13.51
2022-11-27T12:21:00.100Z,12.97
2022-11-27T12:24:04.067Z,12.75
2022-11-27T12:27:12.135Z,12.42
2022-11-27T12:30:16.859Z,12.47
2022-11-27T12:33:27.108Z,12.61
2022-11-27T12:36:28.180Z,13.07
2022-11-27T12:39:25.987Z,13.47
2022-11-27T12:42:26.003Z,13.80
2022-11-27T12:45:22.363Z,14.07
2022-11-27T12:48:21.803Z,14.38
2022-11-27T12:51:17.911Z,14.48
2022-11-27T12:54:15.500Z,14.88
2022-11-27T12:57:11.405Z,14.88
2022-11-27T13:00:07.493Z,14.99
2022-11-27T13:03:06.559Z,15.09
2022-11-27T13:06:02.167Z,15.17
2022-11-27T13:08:58.469Z,15.30
2022-11-27T13:11:48.965Z,15.34
2022-11-27T13:14:42.204Z,15.07
2022-11-27T13:17:40.722Z,14.91
2022-11-27T13:20:38.364Z,14.57
2022-11-27T13:23:32.514Z,14.43
2022-11-27T13:26:27.491Z,14.25
2022-11-27T13:29:26.609Z,14.09
2022-11-27T13:32:23.885Z,13.88
2022-11-27T13:35:24.463Z,13.85
2022-11-27T13:38:21.505Z,13.85
2022-11-27T13:41:22.632Z,13.77
2022-11-27T13:44:26.514Z,13.63
2022-11-27T13:47:20.387Z,13.61
2022-11-27T13:50:13.934Z,13.67
2022-11-27T13:53:07.497Z,13.61
2022-11-27T13:55:59.304Z,13.47
2022-11-27T13:58:50.063Z,13.58
2022-11-27T14:01:39.841Z,13.59
2022-11-27T14:04:31.259Z,13.54
2022-11-27T14:07:21.492Z,13.49
2022-11-27T14:10:15.883Z,13.48
2022-11-27T14:13:08.435Z,13.40
2022-11-27T14:16:02.760Z,13.38
2022-11-27T14:18:55.192Z,13.28
2022-11-27T14:21:44.617Z,13.28
2022-11-27T14:24:44.191Z,13.27
2022-11-27T14:27:37.349Z,13.20
2022-11-27T14:30:36.050Z,13.13
2022-11-27T14:33:29.721Z,13.13
2022-11-27T14:36:25.873Z,13.11
2022-11-27T14:39:24.910Z,12.97
2022-11-27T14:42:28.139Z,13.05
2022-11-27T14:45:21.484Z,13.05
2022-11-27T14:48:26.483Z,13.10
2022-11-27T14:51:20.148Z,13.03
2022-11-27T14:54:14.791Z,13.09
2022-11-27T14:57:05.229Z,13.13
2022-11-27T15:00:16.542Z,13.12
2022-11-27T15:03:11.235Z,13.08
2022-11-27T15:06:05.082Z,12.86
2022-11-27T15:09:23.743Z,13.05
2022-11-27T15:12:16.374Z,12.95
2022-11-27T15:15:11.059Z,12.96
2022-11-27T15:18:03.383Z,12.90
2022-11-27T15:20:53.306Z,12.89
2022-11-27T15:23:49.758Z,12.86
2022-11-27T15:26:41.098Z,12.79
2022-11-27T15:29:37.963Z,12.79
2022-11-27T15:32:29.986Z,12.75
2022-11-27T15:35:27.465Z,12.72
2022-11-27T15:38:20.157Z,12.63
2022-11-27T15:41:23.000Z,12.62
2022-11-27T15:44:12.389Z,12.47
2022-11-27T15:47:04.365Z,12.46
2022-11-27T15:49:53.765Z,12.33
2022-11-27T15:52:43.738Z,12.35
2022-11-27T15:55:33.500Z,12.29
2022-11-27T15:58:24.150Z,12.25
2022-11-27T16:01:13.804Z,12.31
2022-11-27T16:04:03.308Z,12.25
2022-11-27T16:06:53.807Z,12.22
2022-11-27T16:09:43.193Z,12.19
2022-11-27T16:12:34.448Z,12.14
2022-11-27T16:15:28.837Z,12.14
2022-11-27T16:18:22.103Z,12.08
2022-11-27T16:21:14.198Z,11.93
2022-11-27T16:24:07.664Z,12.00
2022-11-27T16:26:57.225Z,11.93
2022-11-27T16:29:46.578Z,12.04
2022-11-27T16:32:40.786Z,12.10
2022-11-27T16:35:30.925Z,12.06
2022-11-27T16:38:21.055Z,12.06
2022-11-27T16:41:14.484Z,12.04
2022-11-27T16:44:12.153Z,12.04
2022-11-27T16:47:01.747Z,11.95
2022-11-27T16:49:53.370Z,11.99
2022-11-27T16:52:43.129Z,11.88
2022-11-27T16:55:33.311Z,11.93
2022-11-27T16:58:22.617Z,11.97
2022-11-27T17:01:14.371Z,11.87
2022-11-27T17:04:04.812Z,11.94
2022-11-27T17:06:55.605Z,11.92
2022-11-27T17:09:44.889Z,11.89
2022-11-27T17:12:34.772Z,11.63
2022-11-27T17:15:24.966Z,11.87
2022-11-27T17:18:14.672Z,11.88
2022-11-27T17:21:07.191Z,11.81
2022-11-27T17:23:59.396Z,11.87
2022-11-27T17:26:49.693Z,11.83
2022-11-27T17:29:39.399Z,11.89
2022-11-27T17:32:29.114Z,11.83
2022-11-27T17:35:18.410Z,11.83
2022-11-27T17:38:08.086Z,11.78
2022-11-27T17:41:02.869Z,11.80
2022-11-27T17:43:52.387Z,11.78
2022-11-27T17:46:41.707Z,11.74
2022-11-27T17:49:31.455Z,11.74
2022-11-27T17:52:20.711Z,11.70
2022-11-27T17:55:10.644Z,11.71
2022-11-27T17:58:02.276Z,11.67
2022-11-27T18:00:51.752Z,11.70
2022-11-27T18:03:42.542Z,11.63
2022-11-27T18:06:32.913Z,11.65
2022-11-27T18:09:22.254Z,11.71
2022-11-27T18:12:11.563Z,11.61
2022-11-27T18:15:03.766Z,11.58
2022-11-27T18:17:53.120Z,11.69
2022-11-27T18:20:42.481Z,11.63
2022-11-27T18:23:31.820Z,11.70
2022-11-27T18:26:39.243Z,11.74
2022-11-27T18:29:32.154Z,11.67
2022-11-27T18:32:23.084Z,11.66
2022-11-27T18:35:12.628Z,11.70
2022-11-27T18:38:01.928Z,11.77
2022-11-27T18:40:51.199Z,11.82
2022-11-27T18:43:41.396Z,11.73
2022-11-27T18:46:30.856Z,11.72
2022-11-27T18:49:23.386Z,11.80
2022-11-27T18:52:13.675Z,11.80
2022-11-27T18:55:04.006Z,11.67
2022-11-27T18:57:54.181Z,11.40
2022-11-27T19:00:44.780Z,10.98
2022-11-27T19:03:38.850Z,10.59
2022-11-27T19:06:32.854Z,10.32
2022-11-27T19:09:22.686Z,10.28
2022-11-27T19:12:12.286Z,10.16
2022-11-27T19:15:01.917Z,10.21
2022-11-27T19:17:51.267Z,10.11
2022-11-27T19:20:40.998Z,10.08
2022-11-27T19:23:37.861Z,10.02
2022-11-27T19:26:31.478Z,9.94
2022-11-27T19:29:20.872Z,9.91
2022-11-27T19:32:10.409Z,9.85
2022-11-27T19:35:04.385Z,9.80
2022-11-27T19:37:56.551Z,9.72
2022-11-27T19:40:47.255Z,9.76
2022-11-27T19:43:36.665Z,9.69
2022-11-27T19:46:28.614Z,9.69
2022-11-27T19:49:19.264Z,9.73
2022-11-27T19:52:08.561Z,9.77
2022-11-27T19:54:57.938Z,9.81
2022-11-27T19:57:48.713Z,9.82
2022-11-27T20:00:38.581Z,9.86
2022-11-27T20:03:28.063Z,9.91
2022-11-27T20:06:20.633Z,9.90
2022-11-27T20:09:10.408Z,9.93
2022-11-27T20:12:02.537Z,9.91
2022-11-27T20:14:53.333Z,9.93
2022-11-27T20:17:42.877Z,9.92
2022-11-27T20:20:34.233Z,9.89
2022-11-27T20:23:23.821Z,9.88
2022-11-27T20:26:16.713Z,9.82
2022-11-27T20:29:07.233Z,9.81
2022-11-27T20:31:57.977Z,9.73
2022-11-27T20:34:47.462Z,9.78
2022-11-27T20:37:38.012Z,9.76
2022-11-27T20:40:28.388Z,9.77
2022-11-27T20:43:18.527Z,9.77
2022-11-27T20:46:08.888Z,9.75
2022-11-27T20:49:01.123Z,9.72
2022-11-27T20:51:51.286Z,9.71
2022-11-27T20:54:44.669Z,9.74
2022-11-27T20:57:34.207Z,9.80
2022-11-27T21:00:24.307Z,9.76
2022-11-27T21:03:13.584Z,9.89
2022-11-27T21:06:04.455Z,9.93
2022-11-27T21:08:55.702Z,9.95
2022-11-27T21:11:47.491Z,10.02
2022-11-27T21:14:37.054Z,10.07
2022-11-27T21:17:26.469Z,10.06
2022-11-27T21:20:16.182Z,10.14
2022-11-27T21:23:06.847Z,10.22
2022-11-27T21:25:56.175Z,10.25
2022-11-27T21:28:46.747Z,10.26
2022-11-27T21:31:37.990Z,10.29
2022-11-27T21:34:28.339Z,10.36
2022-11-27T21:37:18.137Z,10.43
2022-11-27T21:40:10.674Z,10.37
2022-11-27T21:43:00.218Z,10.46
2022-11-27T21:45:49.716Z,10.48
2022-11-27T21:48:39.292Z,10.51
2022-11-27T21:51:29.419Z,10.52
2022-11-27T21:54:19.954Z,10.51
2022-11-27T21:57:10.716Z,10.45
2022-11-27T22:00:01.212Z,10.54
2022-11-27T22:02:50.526Z,10.40
2022-11-27T22:05:39.815Z,10.48
2022-11-27T22:08:29.670Z,10.53
2022-11-27T22:11:23.402Z,10.49
2022-11-27T22:14:17.254Z,10.49
2022-11-27T22:17:06.560Z,10.47
2022-11-27T22:19:56.020Z,10.53
2022-11-27T22:22:46.302Z,10.61
2022-11-27T22:25:35.867Z,10.52
2022-11-27T22:28:25.327Z,10.59
2022-11-27T22:31:19.373Z,10.61
2022-11-27T22:34:08.728Z,10.59
2022-11-27T22:36:58.110Z,10.63
2022-11-27T22:39:47.491Z,10.56
2022-11-27T22:42:37.464Z,10.67
2022-11-27T22:45:26.897Z,10.64
2022-11-27T22:48:18.093Z,10.59
2022-11-27T22:51:07.955Z,10.69
2022-11-27T22:53:57.410Z,10.64
2022-11-27T22:56:47.523Z,10.72
2022-11-27T22:59:37.574Z,10.65
2022-11-27T23:02:27.453Z,10.79
2022-11-27T23:05:18.928Z,10.78
2022-11-27T23:08:08.581Z,10.77
2022-11-27T23:10:58.178Z,10.77
2022-11-27T23:13:49.804Z,10.73
2022-11-27T23:16:39.623Z,10.71
2022-11-27T23:19:29.172Z,10.72
2022-11-27T23:22:19.819Z,10.67
2022-11-27T23:25:10.538Z,10.60
2022-11-27T23:27:59.980Z,10.52
2022-11-27T23:31:03.147Z,10.64
2022-11-27T23:33:59.118Z,10.55
2022-11-27T23:36:48.402Z,10.60
2022-11-27T23:39:39.754Z,10.57
2022-11-27T23:42:29.099Z,10.55
2022-11-27T23:45:18.724Z,10.59
2022-11-27T23:48:08.127Z,10.56
2022-11-27T23:50:57.443Z,10.49
2022-11-27T23:53:47.292Z,10.52
2022-11-27T23:56:39.963Z,10.50
2022-11-27T23:59:29.536Z,10.55
